Time,TemperatureF,DewpointF,PressureIn,WindDirection,WindDirectionDegrees,WindSpeedMPH,WindSpeedGustMPH,Humidity,HourlyPrecipIn,Conditions,Clouds,dailyrainin,SolarRadiationWatts/m^2,SoftwareType,DateUTC
2013-05-08 00:02:00,51.0,48.0,-100.00,East,97,1.0,3.0,89,0.00,,,0.03,0.000000,,2013-05-08 04:02:00,
2013-05-08 00:33:00,50.0,48.0,-100.00,East,101,1.0,3.0,94,0.01,,,0.04,0.000000,,2013-05-08 04:33:00,
2013-05-08 00:43:00,50.0,48.0,-100.00,East,101,1.0,3.0,94,0.01,,,0.04,0.000000,,2013-05-08 04:43:00,
2013-05-08 00:53:00,50.0,48.0,-100.00,East,101,1.0,3.0,94,0.01,,,0.04,0.000000,,2013-05-08 04:53:00,
2013-05-08 01:02:00,50.0,48.0,-100.00,East,101,1.0,3.0,94,0.01,,,0.04,0.000000,,2013-05-08 05:02:00,
2013-05-08 01:32:00,50.0,49.0,-100.00,East,90,0.0,1.0,96,0.00,,,0.04,0.000000,,2013-05-08 05:32:00,
2013-05-08 01:42:00,50.0,49.0,-100.00,East,90,0.0,1.0,96,0.00,,,0.04,0.000000,,2013-05-08 05:42:00,
2013-05-08 01:52:00,50.0,49.0,-100.00,East,90,0.0,1.0,96,0.00,,,0.04,0.000000,,2013-05-08 05:52:00,
2013-05-08 02:02:00,50.0,49.0,-100.00,East,90,0.0,1.0,96,0.00,,,0.04,0.000000,,2013-05-08 06:02:00,
2013-05-08 02:32:00,51.0,50.0,-100.00,SSE,156,1.0,2.0,95,0.00,,,0.04,0.000000,,2013-05-08 06:32:00,
2013-05-08 02:42:00,51.0,50.0,-100.00,SSE,156,1.0,2.0,95,0.00,,,0.04,0.000000,,2013-05-08 06:42:00,
2013-05-08 02:52:00,51.0,50.0,-100.00,SSE,156,1.0,2.0,95,0.00,,,0.04,0.000000,,2013-05-08 06:52:00,
2013-05-08 03:02:00,51.0,50.0,-100.00,SSE,156,1.0,2.0,95,0.00,,,0.04,0.000000,,2013-05-08 07:02:00,
2013-05-08 03:32:00,51.0,50.0,-100.00,NNE,24,0.0,4.0,95,0.00,,,0.04,0.000000,,2013-05-08 07:32:00,
2013-05-08 03:42:00,51.0,50.0,-100.00,NNE,24,0.0,4.0,95,0.00,,,0.04,0.000000,,2013-05-08 07:42:00,
2013-05-08 03:52:00,51.0,50.0,-100.00,NNE,24,0.0,4.0,95,0.00,,,0.04,0.000000,,2013-05-08 07:52:00,
2013-05-08 04:02:00,51.0,50.0,-100.00,NNE,24,0.0,4.0,95,0.00,,,0.04,0.000000,,2013-05-08 08:02:00,
2013-05-08 04:22:00,50.0,49.0,-100.00,SSW,204,0.0,2.0,97,0.00,,,0.03,0.000000,,2013-05-08 08:22:00,
2013-05-08 04:32:00,50.0,49.0,-100.00,SSW,204,0.0,2.0,97,0.00,,,0.03,0.000000,,2013-05-08 08:32:00,
2013-05-08 04:43:00,50.0,49.0,-100.00,SSW,204,0.0,2.0,97,0.00,,,0.03,0.000000,,2013-05-08 08:43:00,
2013-05-08 04:52:00,50.0,49.0,-100.00,SSW,204,0.0,2.0,97,0.00,,,0.03,0.000000,,2013-05-08 08:52:00,
2013-05-08 05:02:00,50.0,49.0,-100.00,SSW,204,0.0,2.0,97,0.00,,,0.03,0.000000,,2013-05-08 09:02:00,
2013-05-08 05:32:00,51.0,50.0,-100.00,ESE,105,1.0,2.0,98,0.00,,,0.03,0.000000,,2013-05-08 09:32:00,
2013-05-08 05:42:00,51.0,50.0,-100.00,ESE,105,1.0,2.0,98,0.00,,,0.03,0.000000,,2013-05-08 09:42:00,
2013-05-08 05:53:00,51.0,50.0,-100.00,ESE,105,1.0,2.0,98,0.00,,,0.03,0.000000,,2013-05-08 09:53:00,
2013-05-08 06:02:00,51.0,50.0,-100.00,ESE,105,1.0,2.0,98,0.00,,,0.03,0.000000,,2013-05-08 10:02:00,
2013-05-08 06:33:00,51.0,50.0,-100.00,SE,128,1.0,2.0,98,0.00,,,0.03,0.000000,,2013-05-08 10:33:00,
2013-05-08 06:42:00,51.0,50.0,-100.00,SE,128,1.0,2.0,98,0.00,,,0.03,0.000000,,2013-05-08 10:42:00,
2013-05-08 06:53:00,51.0,50.0,-100.00,SE,128,1.0,2.0,98,0.00,,,0.03,0.000000,,2013-05-08 10:53:00,
2013-05-08 07:02:00,51.0,50.0,-100.00,SE,128,1.0,2.0,98,0.00,,,0.03,0.000000,,2013-05-08 11:02:00,
2013-05-08 07:33:00,51.0,50.0,-100.00,SSE,152,0.0,2.0,98,0.00,,,0.03,3.000000,,2013-05-08 11:33:00,
2013-05-08 07:42:00,51.0,50.0,-100.00,SSE,152,0.0,2.0,98,0.00,,,0.03,3.000000,,2013-05-08 11:42:00,
2013-05-08 07:52:00,51.0,50.0,-100.00,SSE,152,0.0,2.0,98,0.00,,,0.03,3.000000,,2013-05-08 11:52:00,
2013-05-08 08:02:00,51.0,50.0,-100.00,SSE,152,0.0,2.0,98,0.00,,,0.03,3.000000,,2013-05-08 12:02:00,
2013-05-08 10:32:00,59.0,57.0,-100.00,East,88,1.0,3.0,93,-99.99,,,0.04,299.000000,,2013-05-08 14:32:00,
2013-05-08 10:42:00,59.0,57.0,-100.00,East,88,1.0,3.0,93,-99.99,,,0.04,299.000000,,2013-05-08 14:42:00,
2013-05-08 10:52:00,59.0,57.0,-100.00,East,88,1.0,3.0,93,-99.99,,,0.04,299.000000,,2013-05-08 14:52:00,
2013-05-08 11:02:00,59.0,57.0,-100.00,East,88,1.0,3.0,93,-99.99,,,0.04,299.000000,,2013-05-08 15:02:00,
2013-05-08 11:33:00,60.0,56.0,-100.00,NNW,329,3.0,5.0,88,0.00,,,0.04,345.000000,,2013-05-08 15:33:00,
2013-05-08 11:42:00,60.0,56.0,-100.00,NNW,329,3.0,5.0,88,0.00,,,0.04,345.000000,,2013-05-08 15:42:00,
2013-05-08 11:53:00,60.0,56.0,-100.00,NNW,329,3.0,5.0,88,0.00,,,0.04,345.000000,,2013-05-08 15:53:00,
2013-05-08 12:03:00,60.0,56.0,-100.00,NNW,329,3.0,5.0,88,0.00,,,0.04,345.000000,,2013-05-08 16:03:00,
2013-05-08 12:33:00,66.0,58.0,-100.00,NNW,330,3.0,6.0,76,0.00,,,-99.99,642.000000,,2013-05-08 16:33:00,
2013-05-08 12:42:00,66.0,58.0,-100.00,NNW,330,3.0,6.0,76,0.00,,,-99.99,642.000000,,2013-05-08 16:42:00,
2013-05-08 12:52:00,66.0,58.0,-100.00,NNW,330,3.0,6.0,76,0.00,,,-99.99,642.000000,,2013-05-08 16:52:00,
2013-05-08 13:02:00,66.0,58.0,-100.00,NNW,330,3.0,6.0,76,0.00,,,-99.99,642.000000,,2013-05-08 17:02:00,
2013-05-08 13:52:00,68.0,57.0,-100.00,WNW,301,4.0,7.0,68,0.00,,,-99.99,510.000000,,2013-05-08 17:52:00,
2013-05-08 14:02:00,68.0,57.0,-100.00,WNW,301,4.0,7.0,68,0.00,,,-99.99,510.000000,,2013-05-08 18:02:00,
2013-05-08 14:32:00,63.0,53.0,-100.00,North,352,2.0,11.0,69,0.00,,,0.03,159.000000,,2013-05-08 18:32:00,
2013-05-08 14:42:00,63.0,53.0,-100.00,North,352,2.0,11.0,69,0.00,,,0.03,159.000000,,2013-05-08 18:42:00,
2013-05-08 14:52:00,63.0,53.0,-100.00,North,352,2.0,11.0,69,0.00,,,0.03,159.000000,,2013-05-08 18:52:00,
2013-05-08 15:01:00,63.0,53.0,-100.00,North,352,2.0,11.0,69,0.00,,,0.03,159.000000,,2013-05-08 19:01:00,
2013-05-08 15:32:00,63.0,52.0,-100.00,NNW,342,2.0,5.0,67,0.00,,,0.03,201.000000,,2013-05-08 19:32:00,
2013-05-08 15:42:00,63.0,52.0,-100.00,NNW,342,2.0,5.0,67,0.00,,,0.03,201.000000,,2013-05-08 19:42:00,
2013-05-08 15:52:00,63.0,52.0,-100.00,NNW,342,2.0,5.0,67,0.00,,,0.03,201.000000,,2013-05-08 19:52:00,
2013-05-08 16:02:00,63.0,52.0,-100.00,NNW,342,2.0,5.0,67,0.00,,,0.03,201.000000,,2013-05-08 20:02:00,
2013-05-08 16:32:00,67.0,58.0,-100.00,East,85,2.0,7.0,72,0.01,,,0.04,308.000000,,2013-05-08 20:32:00,
2013-05-08 16:42:00,67.0,58.0,-100.00,East,85,2.0,7.0,72,0.01,,,0.04,308.000000,,2013-05-08 20:42:00,
2013-05-08 16:52:00,67.0,58.0,-100.00,East,85,2.0,7.0,72,0.01,,,0.04,308.000000,,2013-05-08 20:52:00,
2013-05-08 17:02:00,67.0,58.0,-100.00,East,85,2.0,7.0,72,0.01,,,0.04,308.000000,,2013-05-08 21:02:00,
2013-05-08 17:33:00,68.0,52.0,-100.00,SSE,151,2.0,7.0,56,0.00,,,0.03,593.000000,,2013-05-08 21:33:00,
2013-05-08 17:43:00,68.0,52.0,-100.00,SSE,151,2.0,7.0,56,0.00,,,0.03,593.000000,,2013-05-08 21:43:00,
2013-05-08 17:53:00,68.0,52.0,-100.00,SSE,151,2.0,7.0,56,0.00,,,0.03,593.000000,,2013-05-08 21:53:00,
2013-05-08 18:03:00,68.0,52.0,-100.00,SSE,151,2.0,7.0,56,0.00,,,0.03,593.000000,,2013-05-08 22:03:00,
2013-05-08 18:33:00,70.0,55.0,-100.00,West,275,1.0,5.0,59,0.00,,,0.03,330.000000,,2013-05-08 22:33:00,
2013-05-08 18:42:00,70.0,55.0,-100.00,West,275,1.0,5.0,59,0.00,,,0.03,330.000000,,2013-05-08 22:42:00,
2013-05-08 18:53:00,70.0,55.0,-100.00,West,275,1.0,5.0,59,0.00,,,0.03,330.000000,,2013-05-08 22:53:00,
2013-05-08 19:02:00,70.0,55.0,-100.00,West,275,1.0,5.0,59,0.00,,,0.03,330.000000,,2013-05-08 23:02:00,
2013-05-08 19:33:00,64.0,56.0,-100.00,SSW,201,1.0,4.0,76,0.00,,,0.03,81.000000,,2013-05-08 23:33:00,
2013-05-08 19:42:00,64.0,56.0,-100.00,SSW,201,1.0,4.0,76,0.00,,,0.03,81.000000,,2013-05-08 23:42:00,
2013-05-08 19:53:00,64.0,56.0,-100.00,SSW,201,1.0,4.0,76,0.00,,,0.03,81.000000,,2013-05-08 23:53:00,
2013-05-08 20:02:00,64.0,56.0,-100.00,SSW,201,1.0,4.0,76,0.00,,,0.03,81.000000,,2013-05-09 00:02:00,
2013-05-08 21:32:00,56.0,55.0,-100.00,WSW,252,0.0,2.0,95,-99.99,,,0.03,16.000000,,2013-05-09 01:32:00,
2013-05-08 21:42:00,56.0,55.0,-100.00,WSW,252,0.0,2.0,95,-99.99,,,0.03,16.000000,,2013-05-09 01:42:00,
2013-05-08 21:53:00,56.0,55.0,-100.00,WSW,252,0.0,2.0,95,-99.99,,,0.03,16.000000,,2013-05-09 01:53:00,
2013-05-08 22:02:00,56.0,55.0,-100.00,WSW,252,0.0,2.0,95,-99.99,,,0.03,16.000000,,2013-05-09 02:02:00,
2013-05-08 22:33:00,55.0,54.0,-100.00,NE,35,1.0,2.0,97,0.00,,,0.03,0.000000,,2013-05-09 02:33:00,
2013-05-08 22:42:00,55.0,54.0,-100.00,NE,35,1.0,2.0,97,0.00,,,0.03,0.000000,,2013-05-09 02:42:00,
2013-05-08 22:52:00,55.0,54.0,-100.00,NE,35,1.0,2.0,97,0.00,,,0.03,0.000000,,2013-05-09 02:52:00,
2013-05-08 23:02:00,55.0,54.0,-100.00,NE,35,1.0,2.0,97,0.00,,,0.03,0.000000,,2013-05-09 03:02:00,
2013-05-08 23:33:00,55.0,54.0,-100.00,East,96,1.0,2.0,98,0.01,,,0.04,0.000000,,2013-05-09 03:33:00,
2013-05-08 23:43:00,55.0,54.0,-100.00,East,96,1.0,2.0,98,0.01,,,0.04,0.000000,,2013-05-09 03:43:00,
2013-05-08 23:53:00,55.0,54.0,-100.00,East,96,1.0,2.0,98,0.01,,,0.04,0.000000,,2013-05-09 03:53:00,